Pagina principale
METAR-TAF:

METAR-TAF

Aeroporti :

Aeroporto di Grosseto

Grosseto, Italia

latitudine: 42-45N, longitudine: 011-04E, altezza: 5 m

Osservazione

Il bollettino è stato emesso 58 minuti fa, alle 09:55 UTC
Vento 5 kt da est/nord-est
Temperature 16°C
Umidità 82%
Pressione 1025 hPa
Visibilità 10 km o più
Poco nuvoloso ad un'altezza di 3000 ft

METAR: LIRS 310955Z 06005KT 9999 FEW030 16/13 Q1025 RMK SCT VIS MIN 9999 WIND THR03 08004KT WIND THR21 07005KT BLU

Ora: 11:53 (10:53 UTC)

Previsione

Il bollettino è stato emesso 2 ore e 53 minuti fa, alle 08:00 UTC
Previsione valida dal 31 alle 09 UTC al 31 alle 18 UTC
Vento 5 kt da est/nord-est
Visibilità 10 km o più
nessuna nube inferiore a 1500 m e nessun cumulonembo
Temporaneamente
dal 31 alle 09 UTC al 31 alle 11 UTC
Visibilità: 5000 m
Poco nuvoloso ad un'altezza di 1000 ft
foschia

TAF: LIRS 310800Z 3109/3118 07005KT CAVOK TEMPO 3109/3111 5000 BR FEW010

Osservazioni e previsioni meteorologiche di più di 4000 aeroporti (messaggi METAR e TAF).

Le stazioni disponibili sono rappresentate dai dischi gialli e rossi sulla carta.

Puntare il mouse per vedere il nome della stazione.

Clicca sopra per visualizzare le osservazioni e previsioni meteorologiche.

Per cambiare la mappa : fare clic sui pulsanti verdi con una croce nera per ingrandire, il pulsante verde con un trattino per diminuire, o sulla freccia verde per le mappe adiacenti.


METAR-TAF: